createdAt,value
2022-08-07T00:02:41.101Z,14.70
2022-08-07T00:04:59.585Z,14.70
2022-08-07T00:07:27.367Z,14.60
2022-08-07T00:10:18.747Z,14.60
2022-08-07T00:12:57.908Z,14.60
2022-08-07T00:15:38.083Z,14.50
2022-08-07T00:18:19.513Z,14.50
2022-08-07T00:20:49.494Z,14.40
2022-08-07T00:23:17.089Z,14.50
2022-08-07T00:25:45.887Z,14.50
2022-08-07T00:28:22.034Z,14.50
2022-08-07T00:30:49.280Z,14.50
2022-08-07T00:33:16.305Z,14.60
2022-08-07T00:35:49.088Z,14.70
2022-08-07T00:38:16.438Z,14.70
2022-08-07T00:40:58.930Z,14.80
2022-08-07T00:44:00.252Z,14.90
2022-08-07T00:46:14.440Z,15.00
2022-08-07T00:48:42.219Z,15.10
2022-08-07T00:51:10.267Z,15.10
2022-08-07T00:53:38.538Z,15.20
2022-08-07T00:56:15.961Z,15.20
2022-08-07T00:58:46.575Z,15.30
2022-08-07T01:01:15.921Z,15.20
2022-08-07T01:03:56.694Z,15.30
2022-08-07T01:06:28.411Z,15.30
2022-08-07T01:08:58.288Z,15.20
2022-08-07T01:12:10.299Z,15.20
2022-08-07T01:14:15.525Z,15.20
2022-08-07T01:16:47.401Z,15.20
2022-08-07T01:19:18.759Z,15.10
2022-08-07T01:21:53.454Z,15.10
2022-08-07T01:24:25.682Z,15.20
2022-08-07T01:26:54.160Z,15.20
2022-08-07T01:29:31.450Z,15.20
2022-08-07T01:32:05.484Z,15.20
2022-08-07T01:34:33.302Z,15.20
2022-08-07T01:37:05.970Z,15.20
2022-08-07T01:39:40.886Z,15.20
2022-08-07T01:42:39.473Z,15.20
2022-08-07T01:45:22.716Z,15.20
2022-08-07T01:48:20.824Z,15.20
2022-08-07T01:50:47.062Z,15.30
2022-08-07T01:53:21.136Z,15.30
2022-08-07T01:55:57.714Z,15.30
2022-08-07T01:58:33.374Z,15.40
2022-08-07T02:01:25.046Z,15.40
2022-08-07T02:04:16.213Z,15.40
2022-08-07T02:06:47.914Z,15.30
2022-08-07T02:09:52.128Z,15.30
2022-08-07T02:12:29.207Z,15.40
2022-08-07T02:15:00.888Z,15.40
2022-08-07T02:17:49.450Z,15.40
2022-08-07T02:20:23.688Z,15.40
2022-08-07T02:22:59.746Z,15.40
2022-08-07T02:26:10.618Z,15.40
2022-08-07T02:28:24.438Z,15.40
2022-08-07T02:30:55.270Z,15.40
2022-08-07T02:33:25.434Z,15.40
2022-08-07T02:36:28.379Z,15.40
2022-08-07T02:38:58.397Z,15.40
2022-08-07T02:41:33.586Z,15.40
2022-08-07T02:44:05.630Z,15.40
2022-08-07T02:46:36.723Z,15.40
2022-08-07T02:49:05.619Z,15.40
2022-08-07T02:51:42.587Z,15.40
2022-08-07T02:54:19.997Z,15.40
2022-08-07T02:56:48.557Z,15.30
2022-08-07T02:59:24.193Z,15.30
2022-08-07T03:01:57.676Z,15.30
2022-08-07T03:04:30.379Z,15.30
2022-08-07T03:07:07.252Z,15.30
2022-08-07T03:09:41.858Z,15.40
2022-08-07T03:12:21.987Z,15.40
2022-08-07T03:14:52.251Z,15.40
2022-08-07T03:17:20.212Z,15.50
2022-08-07T03:19:55.154Z,15.40
2022-08-07T03:22:30.194Z,15.40
2022-08-07T03:24:59.971Z,15.40
2022-08-07T03:27:42.222Z,15.30
2022-08-07T03:30:17.936Z,15.30
2022-08-07T03:32:58.327Z,15.30
2022-08-07T03:35:43.569Z,15.30
2022-08-07T03:38:16.332Z,15.30
2022-08-07T03:40:57.375Z,15.30
2022-08-07T03:43:32.371Z,15.30
2022-08-07T03:46:02.983Z,15.20
2022-08-07T03:48:31.774Z,15.30
2022-08-07T03:51:00.522Z,15.30
2022-08-07T03:54:01.967Z,15.30
2022-08-07T03:56:33.545Z,15.20
2022-08-07T03:59:10.156Z,15.20
2022-08-07T04:01:45.350Z,15.10
2022-08-07T04:04:17.294Z,15.10
2022-08-07T04:06:46.506Z,15.10
2022-08-07T04:09:19.697Z,15.10
2022-08-07T04:12:20.914Z,15.20
2022-08-07T04:14:43.701Z,15.10
2022-08-07T04:17:20.243Z,15.10
2022-08-07T04:20:01.487Z,15.00
2022-08-07T04:22:33.398Z,15.00
2022-08-07T04:25:11.851Z,15.00
2022-08-07T04:27:44.221Z,15.00
2022-08-07T04:30:21.558Z,15.00
2022-08-07T04:33:14.045Z,15.00
2022-08-07T04:35:50.436Z,15.00
2022-08-07T04:38:19.311Z,15.00
2022-08-07T04:40:52.074Z,15.10
2022-08-07T04:44:12.364Z,15.10
2022-08-07T04:46:59.233Z,15.10
2022-08-07T04:49:57.353Z,15.00
2022-08-07T04:52:51.864Z,15.10
2022-08-07T04:58:16.493Z,15.00
2022-08-07T04:59:17.141Z,15.00
2022-08-07T05:01:55.761Z,15.00
2022-08-07T05:04:52.057Z,15.00
2022-08-07T05:07:36.811Z,15.00
2022-08-07T05:10:19.530Z,15.10
2022-08-07T05:14:44.794Z,15.10
2022-08-07T05:15:51.638Z,15.10
2022-08-07T05:18:30.686Z,15.10
2022-08-07T05:21:05.790Z,15.10
2022-08-07T05:23:42.033Z,15.10
2022-08-07T05:26:37.268Z,15.10
2022-08-07T05:29:10.122Z,15.10
2022-08-07T05:31:40.715Z,15.10
2022-08-07T05:34:26.201Z,15.10
2022-08-07T05:36:56.554Z,15.10
2022-08-07T05:40:13.390Z,15.10
2022-08-07T05:42:33.262Z,15.10
2022-08-07T05:45:14.358Z,15.20
2022-08-07T05:48:02.017Z,15.20
2022-08-07T05:50:34.258Z,15.20
2022-08-07T05:53:02.646Z,15.30
2022-08-07T05:56:03.213Z,15.40
2022-08-07T05:58:36.101Z,15.40
2022-08-07T06:01:10.490Z,15.40
2022-08-07T06:03:57.298Z,15.50
2022-08-07T06:06:32.290Z,15.50
2022-08-07T06:09:04.663Z,15.60
2022-08-07T06:11:34.475Z,15.60
2022-08-07T06:14:11.884Z,15.60
2022-08-07T06:16:45.799Z,15.60
2022-08-07T06:19:47.924Z,15.70
2022-08-07T06:22:16.402Z,15.80
2022-08-07T06:25:01.163Z,15.80
2022-08-07T06:28:00.499Z,15.80
2022-08-07T06:30:31.876Z,15.90
2022-08-07T06:33:09.720Z,16.00
2022-08-07T06:35:47.908Z,16.00
2022-08-07T06:38:31.149Z,15.90
2022-08-07T06:41:01.202Z,16.00
2022-08-07T06:43:39.130Z,16.10
2022-08-07T06:46:12.625Z,16.10
2022-08-07T06:48:42.040Z,16.20
2022-08-07T06:51:31.259Z,16.20
2022-08-07T06:55:29.920Z,16.20
2022-08-07T06:56:51.661Z,16.30
2022-08-07T07:00:13.246Z,16.40
2022-08-07T07:02:54.444Z,16.50
2022-08-07T07:06:05.676Z,16.40
2022-08-07T07:08:18.618Z,16.50
2022-08-07T07:10:56.377Z,16.60
2022-08-07T07:13:55.424Z,16.80
2022-08-07T07:16:21.978Z,16.90
2022-08-07T07:18:55.821Z,16.90
2022-08-07T07:21:27.200Z,16.90
2022-08-07T07:24:12.569Z,17.00
2022-08-07T07:26:49.630Z,17.00
2022-08-07T07:29:40.185Z,17.10
2022-08-07T07:32:14.028Z,17.10
2022-08-07T07:34:48.660Z,17.20
2022-08-07T07:37:45.418Z,17.10
2022-08-07T07:40:10.156Z,17.20
2022-08-07T07:42:50.923Z,17.30
2022-08-07T07:46:38.487Z,17.30
2022-08-07T07:48:24.195Z,17.40
2022-08-07T07:51:07.962Z,17.50
2022-08-07T07:53:52.168Z,17.50
2022-08-07T07:56:30.079Z,17.50
2022-08-07T07:59:00.185Z,17.70
2022-08-07T08:02:01.964Z,17.80
2022-08-07T08:04:19.671Z,17.90
2022-08-07T08:06:53.784Z,18.00
2022-08-07T08:09:29.687Z,18.00
2022-08-07T08:12:02.487Z,18.00
2022-08-07T08:14:36.706Z,18.10
2022-08-07T08:17:32.483Z,18.20
2022-08-07T08:20:18.119Z,18.30
2022-08-07T08:23:08.467Z,18.50
2022-08-07T08:25:57.937Z,18.50
2022-08-07T08:28:38.091Z,18.60
2022-08-07T08:31:08.505Z,18.80
2022-08-07T08:33:43.850Z,18.80
2022-08-07T08:36:17.894Z,18.80
2022-08-07T08:38:55.467Z,19.00
2022-08-07T08:41:58.466Z,19.00
2022-08-07T08:44:44.330Z,19.00
2022-08-07T08:47:52.165Z,18.90
2022-08-07T08:50:34.826Z,18.90
2022-08-07T08:53:30.193Z,18.80
2022-08-07T08:56:02.174Z,18.80
2022-08-07T08:58:57.092Z,18.70
2022-08-07T09:01:29.898Z,18.60
2022-08-07T09:04:18.803Z,18.60
2022-08-07T09:06:57.944Z,18.70
2022-08-07T09:09:41.177Z,18.60
2022-08-07T09:12:38.957Z,18.50
2022-08-07T09:16:25.154Z,18.40
2022-08-07T09:18:10.077Z,18.30
2022-08-07T09:21:13.779Z,18.30
2022-08-07T09:24:32.871Z,18.40
2022-08-07T09:27:32.320Z,18.60
2022-08-07T09:30:20.649Z,18.70
2022-08-07T09:33:41.231Z,18.70
2022-08-07T09:36:35.832Z,18.80
2022-08-07T09:39:53.987Z,18.80
2022-08-07T09:42:32.937Z,18.80
2022-08-07T09:46:28.684Z,19.00
2022-08-07T09:48:50.314Z,19.20
2022-08-07T09:52:10.209Z,19.20
2022-08-07T09:54:43.966Z,19.20
2022-08-07T09:57:50.034Z,19.10
2022-08-07T10:00:29.892Z,19.10
2022-08-07T10:04:03.270Z,19.10
2022-08-07T10:06:35.863Z,19.20
2022-08-07T10:09:59.222Z,19.40
2022-08-07T10:12:41.206Z,19.40
2022-08-07T10:15:29.993Z,19.50
2022-08-07T10:18:26.301Z,19.60
2022-08-07T10:21:50.859Z,19.50
2022-08-07T10:24:21.605Z,19.60
2022-08-07T10:27:10.394Z,19.80
2022-08-07T10:30:07.279Z,19.90
2022-08-07T10:33:06.995Z,20.00
2022-08-07T10:36:05.447Z,20.10
2022-08-07T10:38:51.231Z,20.10
2022-08-07T10:41:51.816Z,20.00
2022-08-07T10:44:38.459Z,20.10
2022-08-07T10:47:50.612Z,20.10
2022-08-07T10:50:29.135Z,20.10
2022-08-07T10:53:09.681Z,20.00
2022-08-07T10:56:05.049Z,19.90
2022-08-07T10:58:46.092Z,19.90
2022-08-07T11:01:51.515Z,20.10
2022-08-07T11:04:48.227Z,20.20
2022-08-07T11:07:58.416Z,20.20
2022-08-07T11:10:34.733Z,20.20
2022-08-07T11:14:42.035Z,20.30
2022-08-07T11:16:08.041Z,20.20
2022-08-07T11:18:54.224Z,20.10
2022-08-07T11:21:41.039Z,20.10
2022-08-07T11:24:39.336Z,19.90
2022-08-07T11:28:01.858Z,19.90
2022-08-07T11:30:19.447Z,19.80
2022-08-07T11:33:16.846Z,19.90
2022-08-07T11:36:10.021Z,19.90
2022-08-07T11:38:52.370Z,19.90
2022-08-07T11:42:01.366Z,20.10
2022-08-07T11:44:57.948Z,20.20
2022-08-07T11:47:53.547Z,20.20
2022-08-07T11:51:01.761Z,20.20
2022-08-07T11:53:43.222Z,20.10
2022-08-07T11:56:52.269Z,20.20
2022-08-07T12:00:10.084Z,20.30
2022-08-07T12:02:34.005Z,20.30
2022-08-07T12:05:41.202Z,20.30
2022-08-07T12:08:26.091Z,20.40
2022-08-07T12:11:21.228Z,20.50
2022-08-07T12:14:01.550Z,20.60
2022-08-07T12:16:33.882Z,20.70
2022-08-07T12:19:35.526Z,20.70
2022-08-07T12:22:47.262Z,20.60
2022-08-07T12:26:05.799Z,20.50
2022-08-07T12:28:58.908Z,20.40
2022-08-07T12:32:02.266Z,20.30
2022-08-07T12:34:38.416Z,20.30
2022-08-07T12:37:08.582Z,20.40
2022-08-07T12:39:52.785Z,20.40
2022-08-07T12:42:27.989Z,20.50
2022-08-07T12:45:05.686Z,20.60
2022-08-07T12:47:46.379Z,20.60
2022-08-07T12:50:34.017Z,20.60
2022-08-07T12:54:36.477Z,20.60
2022-08-07T12:56:32.145Z,20.70
2022-08-07T12:59:01.286Z,20.70
2022-08-07T13:02:09.958Z,20.60
2022-08-07T13:05:01.541Z,20.60
2022-08-07T13:08:13.347Z,20.40
2022-08-07T13:10:51.980Z,20.30
2022-08-07T13:13:49.504Z,20.20
2022-08-07T13:16:54.815Z,20.10
2022-08-07T13:19:45.852Z,20.00
2022-08-07T13:22:32.303Z,20.10
2022-08-07T13:25:02.516Z,20.20
2022-08-07T13:28:12.371Z,20.20
2022-08-07T13:30:43.927Z,20.20
2022-08-07T13:34:31.449Z,20.20
2022-08-07T13:36:39.346Z,20.20
2022-08-07T13:40:32.944Z,20.10
2022-08-07T13:42:24.791Z,20.10
2022-08-07T13:44:55.518Z,20.10
2022-08-07T13:48:05.540Z,20.10
2022-08-07T13:50:34.722Z,20.20
2022-08-07T13:53:21.756Z,20.20
2022-08-07T13:55:54.636Z,20.10
2022-08-07T13:58:48.386Z,20.10
2022-08-07T14:01:26.230Z,20.10
2022-08-07T14:04:07.135Z,20.00
2022-08-07T14:06:38.366Z,20.00
2022-08-07T14:09:09.767Z,20.00
2022-08-07T14:11:53.639Z,20.10
2022-08-07T14:14:41.411Z,20.10
2022-08-07T14:17:31.935Z,20.10
2022-08-07T14:20:40.223Z,20.10
2022-08-07T14:23:08.528Z,20.10
2022-08-07T14:25:45.824Z,20.10
2022-08-07T14:28:16.772Z,20.10
2022-08-07T14:30:52.015Z,20.10
2022-08-07T14:33:22.471Z,20.00
2022-08-07T14:35:55.812Z,20.00
2022-08-07T14:38:31.196Z,20.00
2022-08-07T14:41:12.414Z,20.00
2022-08-07T14:43:57.699Z,20.00
2022-08-07T14:46:33.411Z,20.00
2022-08-07T14:49:56.233Z,20.00
2022-08-07T14:52:02.954Z,20.00
2022-08-07T14:57:24.936Z,20.00
2022-08-07T15:00:06.875Z,20.00
2022-08-07T15:02:37.327Z,20.00
2022-08-07T15:05:20.094Z,20.00
2022-08-07T15:07:51.826Z,20.10
2022-08-07T15:10:29.609Z,20.10
2022-08-07T15:13:05.635Z,20.00
2022-08-07T15:15:52.528Z,20.10
2022-08-07T15:18:40.229Z,20.20
2022-08-07T15:21:58.874Z,20.20
2022-08-07T15:27:24.894Z,20.20
2022-08-07T15:33:03.935Z,20.20
2022-08-07T15:41:23.731Z,20.30
2022-08-07T15:44:13.066Z,20.20
2022-08-07T15:46:45.906Z,20.20
2022-08-07T15:50:04.905Z,20.20
2022-08-07T15:52:29.562Z,20.20
2022-08-07T15:55:03.637Z,20.20
2022-08-07T15:57:47.693Z,20.20
2022-08-07T16:00:31.881Z,20.20
2022-08-07T16:03:04.038Z,20.20
2022-08-07T16:05:32.337Z,20.20
2022-08-07T16:08:33.333Z,20.10
2022-08-07T16:11:26.631Z,20.10
2022-08-07T16:14:03.099Z,20.00
2022-08-07T16:16:57.658Z,20.10
2022-08-07T16:20:06.254Z,20.00
2022-08-07T16:22:36.520Z,20.00
2022-08-07T16:25:52.586Z,20.00
2022-08-07T16:30:05.492Z,20.00
2022-08-07T16:31:50.114Z,20.00
2022-08-07T16:34:48.500Z,20.10
2022-08-07T16:38:04.442Z,20.00
2022-08-07T16:40:30.941Z,20.00
2022-08-07T16:44:06.046Z,20.10
2022-08-07T16:47:07.896Z,20.10
2022-08-07T16:50:26.731Z,20.10
2022-08-07T16:53:15.007Z,20.10
2022-08-07T16:55:53.531Z,20.00
2022-08-07T16:59:14.421Z,20.00
2022-08-07T17:01:51.004Z,20.00
2022-08-07T17:04:24.573Z,20.00
2022-08-07T17:07:02.960Z,20.00
2022-08-07T17:10:07.971Z,20.00
2022-08-07T17:12:47.153Z,19.90
2022-08-07T17:15:20.699Z,19.80
2022-08-07T17:17:47.930Z,19.80
2022-08-07T17:20:41.789Z,19.80
2022-08-07T17:23:32.615Z,19.80
2022-08-07T17:26:30.676Z,19.80
2022-08-07T17:29:08.526Z,19.90
2022-08-07T17:31:44.413Z,19.90
2022-08-07T17:35:40.614Z,19.90
2022-08-07T17:38:09.724Z,19.90
2022-08-07T17:40:58.881Z,19.90
2022-08-07T17:44:02.683Z,19.90
2022-08-07T17:46:53.312Z,19.90
2022-08-07T17:49:51.987Z,19.80
2022-08-07T17:52:39.571Z,19.80
2022-08-07T17:56:00.546Z,19.70
2022-08-07T17:58:13.705Z,19.60
2022-08-07T18:00:59.162Z,19.60
2022-08-07T18:04:04.476Z,19.50
2022-08-07T18:06:42.980Z,19.50
2022-08-07T18:09:48.309Z,19.40
2022-08-07T18:12:32.603Z,19.40
2022-08-07T18:15:12.074Z,19.40
2022-08-07T18:18:46.371Z,19.40
2022-08-07T18:21:07.068Z,19.40
2022-08-07T18:24:02.086Z,19.40
2022-08-07T18:26:40.693Z,19.50
2022-08-07T18:30:05.928Z,19.70
2022-08-07T18:32:39.163Z,19.70
2022-08-07T18:35:51.538Z,19.70
2022-08-07T18:39:01.260Z,19.50
2022-08-07T18:41:49.549Z,19.40
2022-08-07T18:47:47.764Z,19.20
2022-08-07T18:50:47.567Z,19.10
2022-08-07T18:53:57.102Z,19.10
2022-08-07T18:56:40.178Z,19.10
2022-08-07T18:59:47.086Z,19.10
2022-08-07T19:02:55.882Z,19.00
2022-08-07T19:06:03.251Z,19.00
2022-08-07T19:08:58.594Z,18.90
2022-08-07T19:12:04.107Z,18.80
2022-08-07T19:14:59.604Z,18.80
2022-08-07T19:17:59.259Z,18.70
2022-08-07T19:21:09.748Z,18.60
2022-08-07T19:23:58.940Z,18.50
2022-08-07T19:26:29.260Z,18.40
2022-08-07T19:31:04.299Z,18.40
2022-08-07T19:32:25.528Z,18.30
2022-08-07T19:34:55.147Z,18.20
2022-08-07T19:37:23.608Z,18.10
2022-08-07T19:40:05.670Z,18.10
2022-08-07T19:42:42.708Z,18.00
2022-08-07T19:46:06.306Z,17.90
2022-08-07T19:48:18.703Z,17.90
2022-08-07T19:50:53.422Z,17.80
2022-08-07T19:54:35.361Z,17.80
2022-08-07T19:57:51.189Z,17.80
2022-08-07T19:58:58.030Z,17.80
2022-08-07T20:01:52.911Z,17.80
2022-08-07T20:04:32.263Z,17.80
2022-08-07T20:07:09.042Z,17.80
2022-08-07T20:10:37.332Z,17.80
2022-08-07T20:12:37.933Z,17.70
2022-08-07T20:15:15.636Z,17.70
2022-08-07T20:18:01.519Z,17.60
2022-08-07T20:20:31.664Z,17.60
2022-08-07T20:23:11.009Z,17.50
2022-08-07T20:25:53.213Z,17.50
2022-08-07T20:28:29.495Z,17.50
2022-08-07T20:30:59.087Z,17.50
2022-08-07T20:33:37.757Z,17.50
2022-08-07T20:36:07.872Z,17.40
2022-08-07T20:38:59.503Z,17.30
2022-08-07T20:41:34.187Z,17.30
2022-08-07T20:44:12.796Z,17.30
2022-08-07T20:46:43.855Z,17.40
2022-08-07T20:50:00.248Z,17.30
2022-08-07T20:52:05.593Z,17.30
2022-08-07T20:54:45.581Z,17.40
2022-08-07T20:57:24.501Z,17.30
2022-08-07T21:00:07.624Z,17.30
2022-08-07T21:02:59.168Z,17.30
2022-08-07T21:05:56.208Z,17.30
2022-08-07T21:08:46.700Z,17.20
2022-08-07T21:11:21.928Z,17.20
2022-08-07T21:14:29.650Z,17.20
2022-08-07T21:18:01.047Z,17.20
2022-08-07T21:20:05.322Z,17.10
2022-08-07T21:22:44.997Z,16.90
2022-08-07T21:25:29.541Z,16.90
2022-08-07T21:28:13.475Z,16.80
2022-08-07T21:30:49.408Z,16.70
2022-08-07T21:33:21.488Z,16.50
2022-08-07T21:36:04.850Z,16.50
2022-08-07T21:38:32.854Z,16.50
2022-08-07T21:41:08.185Z,16.40
2022-08-07T21:43:56.349Z,16.30
2022-08-07T21:46:38.200Z,16.20
2022-08-07T21:49:25.739Z,16.20
2022-08-07T21:52:02.111Z,16.10
2022-08-07T21:54:37.956Z,16.00
2022-08-07T21:57:39.694Z,15.90
2022-08-07T22:00:22.113Z,15.90
2022-08-07T22:02:53.757Z,16.00
2022-08-07T22:05:45.614Z,15.90
2022-08-07T22:08:10.444Z,15.90
2022-08-07T22:10:38.021Z,15.90
2022-08-07T22:13:12.615Z,15.80
2022-08-07T22:16:42.750Z,15.80
2022-08-07T22:19:07.460Z,15.70
2022-08-07T22:22:04.883Z,15.70
2022-08-07T22:24:35.829Z,15.70
2022-08-07T22:27:12.381Z,15.70
2022-08-07T22:29:48.274Z,15.60
2022-08-07T22:32:20.512Z,15.60
2022-08-07T22:34:53.350Z,15.50
2022-08-07T22:38:04.390Z,15.50
2022-08-07T22:40:44.040Z,15.40
2022-08-07T22:43:13.170Z,15.30
2022-08-07T22:46:40.572Z,15.10
2022-08-07T22:48:55.989Z,15.10
2022-08-07T22:51:49.270Z,14.90
2022-08-07T22:54:31.407Z,14.90
2022-08-07T22:57:02.448Z,14.80
2022-08-07T22:59:38.751Z,14.70
2022-08-07T23:02:23.932Z,14.80
2022-08-07T23:06:06.831Z,14.90
2022-08-07T23:08:23.813Z,14.90
2022-08-07T23:11:12.868Z,14.80
2022-08-07T23:14:15.386Z,14.80
2022-08-07T23:16:58.820Z,14.80
2022-08-07T23:20:03.181Z,14.60
2022-08-07T23:22:48.951Z,14.60
2022-08-07T23:25:37.916Z,14.60
2022-08-07T23:28:21.224Z,14.60
2022-08-07T23:31:18.861Z,14.50
2022-08-07T23:34:34.243Z,14.40
2022-08-07T23:37:19.210Z,14.40
2022-08-07T23:40:07.395Z,14.50
2022-08-07T23:42:43.433Z,14.50
2022-08-07T23:45:33.497Z,14.40
2022-08-07T23:48:16.955Z,14.40
2022-08-07T23:50:48.486Z,14.30
2022-08-07T23:53:45.944Z,14.20
2022-08-07T23:56:12.115Z,14.30
2022-08-07T23:58:58.572Z,14.20
